sensor_id;sensor_type;location;lat;lon;timestamp;temperature;humidity
68378;DHT22;55322;48.146;11.516;2023-08-30T00:00:47;12.35;99.99
68378;DHT22;55322;48.146;11.516;2023-08-30T00:03:13;12.30;99.98
68378;DHT22;55322;48.146;11.516;2023-08-30T00:05:39;12.30;99.99
68378;DHT22;55322;48.146;11.516;2023-08-30T00:08:05;12.28;99.88
68378;DHT22;55322;48.146;11.516;2023-08-30T00:10:31;12.26;99.94
68378;DHT22;55322;48.146;11.516;2023-08-30T00:12:56;12.26;99.89
68378;DHT22;55322;48.146;11.516;2023-08-30T00:15:21;12.25;99.85
68378;DHT22;55322;48.146;11.516;2023-08-30T00:17:47;12.24;99.92
68378;DHT22;55322;48.146;11.516;2023-08-30T00:20:13;12.22;99.94
68378;DHT22;55322;48.146;11.516;2023-08-30T00:22:38;12.24;99.83
68378;DHT22;55322;48.146;11.516;2023-08-30T00:25:04;12.25;99.96
68378;DHT22;55322;48.146;11.516;2023-08-30T00:27:30;12.24;99.99
68378;DHT22;55322;48.146;11.516;2023-08-30T00:29:55;12.24;99.99
68378;DHT22;55322;48.146;11.516;2023-08-30T00:32:20;12.24;99.99
68378;DHT22;55322;48.146;11.516;2023-08-30T00:34:49;12.25;99.99
68378;DHT22;55322;48.146;11.516;2023-08-30T00:37:14;12.22;99.92
68378;DHT22;55322;48.146;11.516;2023-08-30T00:39:40;12.21;99.90
68378;DHT22;55322;48.146;11.516;2023-08-30T00:42:05;12.21;99.94
68378;DHT22;55322;48.146;11.516;2023-08-30T00:44:35;12.21;99.82
68378;DHT22;55322;48.146;11.516;2023-08-30T00:47:01;12.17;99.80
68378;DHT22;55322;48.146;11.516;2023-08-30T00:49:29;12.17;99.78
68378;DHT22;55322;48.146;11.516;2023-08-30T00:51:54;12.21;99.59
68378;DHT22;55322;48.146;11.516;2023-08-30T00:54:20;12.21;99.60
68378;DHT22;55322;48.146;11.516;2023-08-30T00:56:46;12.19;99.69
68378;DHT22;55322;48.146;11.516;2023-08-30T00:59:12;12.18;99.64
68378;DHT22;55322;48.146;11.516;2023-08-30T01:01:37;12.14;99.58
68378;DHT22;55322;48.146;11.516;2023-08-30T01:04:04;12.15;99.71
68378;DHT22;55322;48.146;11.516;2023-08-30T01:06:29;12.15;99.69
68378;DHT22;55322;48.146;11.516;2023-08-30T01:08:54;12.15;99.77
68378;DHT22;55322;48.146;11.516;2023-08-30T01:11:34;12.14;99.81
68378;DHT22;55322;48.146;11.516;2023-08-30T01:14:11;12.15;99.83
68378;DHT22;55322;48.146;11.516;2023-08-30T01:16:37;12.15;99.69
68378;DHT22;55322;48.146;11.516;2023-08-30T01:22:02;12.14;99.60
68378;DHT22;55322;48.146;11.516;2023-08-30T01:24:37;12.17;99.70
68378;DHT22;55322;48.146;11.516;2023-08-30T01:27:10;12.17;99.74
68378;DHT22;55322;48.146;11.516;2023-08-30T01:29:42;12.15;99.74
68378;DHT22;55322;48.146;11.516;2023-08-30T01:32:08;12.15;99.50
68378;DHT22;55322;48.146;11.516;2023-08-30T01:34:37;12.08;99.64
68378;DHT22;55322;48.146;11.516;2023-08-30T01:37:06;12.09;99.66
68378;DHT22;55322;48.146;11.516;2023-08-30T01:39:32;12.08;99.72
68378;DHT22;55322;48.146;11.516;2023-08-30T01:41:57;12.11;99.69
68378;DHT22;55322;48.146;11.516;2023-08-30T01:44:29;12.08;99.69
68378;DHT22;55322;48.146;11.516;2023-08-30T01:46:56;12.05;99.65
68378;DHT22;55322;48.146;11.516;2023-08-30T01:49:23;12.09;99.62
68378;DHT22;55322;48.146;11.516;2023-08-30T01:51:50;12.05;99.63
68378;DHT22;55322;48.146;11.516;2023-08-30T01:54:17;12.05;99.65
68378;DHT22;55322;48.146;11.516;2023-08-30T01:56:44;12.04;99.70
68378;DHT22;55322;48.146;11.516;2023-08-30T01:59:10;12.02;99.65
68378;DHT22;55322;48.146;11.516;2023-08-30T02:01:35;12.02;99.74
68378;DHT22;55322;48.146;11.516;2023-08-30T02:04:00;11.99;99.76
68378;DHT22;55322;48.146;11.516;2023-08-30T02:09:10;11.97;99.78
68378;DHT22;55322;48.146;11.516;2023-08-30T02:11:37;11.99;99.87
68378;DHT22;55322;48.146;11.516;2023-08-30T02:14:05;11.98;99.85
68378;DHT22;55322;48.146;11.516;2023-08-30T02:16:33;12.01;99.89
68378;DHT22;55322;48.146;11.516;2023-08-30T02:18:59;11.99;99.94
68378;DHT22;55322;48.146;11.516;2023-08-30T02:21:25;11.99;99.89
68378;DHT22;55322;48.146;11.516;2023-08-30T02:23:52;12.01;99.90
68378;DHT22;55322;48.146;11.516;2023-08-30T02:26:19;12.02;99.94
68378;DHT22;55322;48.146;11.516;2023-08-30T02:28:45;12.06;99.95
68378;DHT22;55322;48.146;11.516;2023-08-30T02:31:10;12.04;99.90
68378;DHT22;55322;48.146;11.516;2023-08-30T02:33:35;12.04;99.93
68378;DHT22;55322;48.146;11.516;2023-08-30T02:36:02;12.02;99.87
68378;DHT22;55322;48.146;11.516;2023-08-30T02:38:28;12.02;99.88
68378;DHT22;55322;48.146;11.516;2023-08-30T02:40:53;12.04;99.91
68378;DHT22;55322;48.146;11.516;2023-08-30T02:43:18;12.04;99.87
68378;DHT22;55322;48.146;11.516;2023-08-30T02:45:44;12.05;99.95
68378;DHT22;55322;48.146;11.516;2023-08-30T02:48:09;12.06;99.88
68378;DHT22;55322;48.146;11.516;2023-08-30T02:50:34;12.08;99.90
68378;DHT22;55322;48.146;11.516;2023-08-30T02:53:00;12.09;99.89
68378;DHT22;55322;48.146;11.516;2023-08-30T02:55:25;12.05;99.79
68378;DHT22;55322;48.146;11.516;2023-08-30T02:57:50;12.08;99.88
68378;DHT22;55322;48.146;11.516;2023-08-30T03:00:16;12.06;99.85
68378;DHT22;55322;48.146;11.516;2023-08-30T03:02:41;12.08;99.90
68378;DHT22;55322;48.146;11.516;2023-08-30T03:05:07;12.11;99.82
68378;DHT22;55322;48.146;11.516;2023-08-30T03:07:32;12.09;99.83
68378;DHT22;55322;48.146;11.516;2023-08-30T03:09:58;12.08;99.88
68378;DHT22;55322;48.146;11.516;2023-08-30T03:12:23;12.11;99.91
68378;DHT22;55322;48.146;11.516;2023-08-30T03:14:48;12.11;99.92
68378;DHT22;55322;48.146;11.516;2023-08-30T03:17:14;12.06;99.85
68378;DHT22;55322;48.146;11.516;2023-08-30T03:19:39;12.09;99.93
68378;DHT22;55322;48.146;11.516;2023-08-30T03:22:04;12.12;99.98
68378;DHT22;55322;48.146;11.516;2023-08-30T03:24:30;12.12;99.86
68378;DHT22;55322;48.146;11.516;2023-08-30T03:26:55;12.14;99.85
68378;DHT22;55322;48.146;11.516;2023-08-30T03:29:21;12.09;99.85
68378;DHT22;55322;48.146;11.516;2023-08-30T03:31:47;12.12;99.85
68378;DHT22;55322;48.146;11.516;2023-08-30T03:34:12;12.11;99.90
68378;DHT22;55322;48.146;11.516;2023-08-30T03:36:38;12.11;99.90
68378;DHT22;55322;48.146;11.516;2023-08-30T03:39:04;12.11;99.78
68378;DHT22;55322;48.146;11.516;2023-08-30T03:41:29;12.14;99.86
68378;DHT22;55322;48.146;11.516;2023-08-30T03:43:55;12.17;99.83
68378;DHT22;55322;48.146;11.516;2023-08-30T03:46:20;12.17;99.89
68378;DHT22;55322;48.146;11.516;2023-08-30T03:48:45;12.14;99.87
68378;DHT22;55322;48.146;11.516;2023-08-30T03:51:11;12.12;99.91
68378;DHT22;55322;48.146;11.516;2023-08-30T03:53:36;12.11;99.82
68378;DHT22;55322;48.146;11.516;2023-08-30T03:56:01;12.12;99.87
68378;DHT22;55322;48.146;11.516;2023-08-30T03:58:28;12.12;99.95
68378;DHT22;55322;48.146;11.516;2023-08-30T04:00:54;12.14;99.93
68378;DHT22;55322;48.146;11.516;2023-08-30T04:03:19;12.11;99.87
68378;DHT22;55322;48.146;11.516;2023-08-30T04:05:44;12.11;99.76
68378;DHT22;55322;48.146;11.516;2023-08-30T04:08:10;12.12;99.88
68378;DHT22;55322;48.146;11.516;2023-08-30T04:10:40;12.09;99.79
68378;DHT22;55322;48.146;11.516;2023-08-30T04:13:06;12.09;99.80
68378;DHT22;55322;48.146;11.516;2023-08-30T04:15:36;12.06;99.78
68378;DHT22;55322;48.146;11.516;2023-08-30T04:18:02;12.05;99.72
68378;DHT22;55322;48.146;11.516;2023-08-30T04:20:28;12.06;99.79
68378;DHT22;55322;48.146;11.516;2023-08-30T04:22:53;12.08;99.89
68378;DHT22;55322;48.146;11.516;2023-08-30T04:25:20;12.06;99.91
68378;DHT22;55322;48.146;11.516;2023-08-30T04:27:45;12.04;99.84
68378;DHT22;55322;48.146;11.516;2023-08-30T04:30:11;12.05;99.96
68378;DHT22;55322;48.146;11.516;2023-08-30T04:32:37;12.04;99.93
68378;DHT22;55322;48.146;11.516;2023-08-30T04:35:02;12.05;99.95
68378;DHT22;55322;48.146;11.516;2023-08-30T04:37:30;12.04;99.94
68378;DHT22;55322;48.146;11.516;2023-08-30T04:39:57;12.02;99.98
68378;DHT22;55322;48.146;11.516;2023-08-30T04:42:22;12.04;99.99
68378;DHT22;55322;48.146;11.516;2023-08-30T04:44:47;12.01;99.87
68378;DHT22;55322;48.146;11.516;2023-08-30T04:47:13;12.02;99.99
68378;DHT22;55322;48.146;11.516;2023-08-30T04:49:38;12.02;99.99
68378;DHT22;55322;48.146;11.516;2023-08-30T04:52:04;12.01;99.97
68378;DHT22;55322;48.146;11.516;2023-08-30T04:54:29;12.04;99.95
68378;DHT22;55322;48.146;11.516;2023-08-30T04:56:55;11.99;99.94
68378;DHT22;55322;48.146;11.516;2023-08-30T04:59:20;12.01;99.96
68378;DHT22;55322;48.146;11.516;2023-08-30T05:01:45;12.02;99.99
68378;DHT22;55322;48.146;11.516;2023-08-30T05:04:11;11.97;99.97
68378;DHT22;55322;48.146;11.516;2023-08-30T05:06:36;12.01;99.99
68378;DHT22;55322;48.146;11.516;2023-08-30T05:09:02;11.99;99.89
68378;DHT22;55322;48.146;11.516;2023-08-30T05:11:27;11.99;99.96
68378;DHT22;55322;48.146;11.516;2023-08-30T05:13:54;11.97;99.99
68378;DHT22;55322;48.146;11.516;2023-08-30T05:16:19;12.01;99.90
68378;DHT22;55322;48.146;11.516;2023-08-30T05:18:45;12.05;99.99
68378;DHT22;55322;48.146;11.516;2023-08-30T05:21:10;12.06;99.99
68378;DHT22;55322;48.146;11.516;2023-08-30T05:23:35;12.02;99.98
68378;DHT22;55322;48.146;11.516;2023-08-30T05:26:01;12.05;99.99
68378;DHT22;55322;48.146;11.516;2023-08-30T05:28:26;12.04;99.97
68378;DHT22;55322;48.146;11.516;2023-08-30T05:30:51;12.11;99.99
68378;DHT22;55322;48.146;11.516;2023-08-30T05:33:17;12.17;99.99
68378;DHT22;55322;48.146;11.516;2023-08-30T05:35:42;12.21;99.80
68378;DHT22;55322;48.146;11.516;2023-08-30T05:38:07;12.25;99.66
68378;DHT22;55322;48.146;11.516;2023-08-30T05:40:32;12.25;99.55
68378;DHT22;55322;48.146;11.516;2023-08-30T05:42:58;12.24;99.56
68378;DHT22;55322;48.146;11.516;2023-08-30T05:45:23;12.24;99.41
68378;DHT22;55322;48.146;11.516;2023-08-30T05:47:48;12.26;99.49
68378;DHT22;55322;48.146;11.516;2023-08-30T05:50:14;12.30;99.38
68378;DHT22;55322;48.146;11.516;2023-08-30T05:52:39;12.32;99.24
68378;DHT22;55322;48.146;11.516;2023-08-30T05:55:09;12.32;99.08
68378;DHT22;55322;48.146;11.516;2023-08-30T05:57:35;12.35;98.88
68378;DHT22;55322;48.146;11.516;2023-08-30T06:00:01;12.32;98.84
68378;DHT22;55322;48.146;11.516;2023-08-30T06:02:27;12.32;98.87
68378;DHT22;55322;48.146;11.516;2023-08-30T06:04:52;12.33;98.94
68378;DHT22;55322;48.146;11.516;2023-08-30T06:07:18;12.40;99.02
68378;DHT22;55322;48.146;11.516;2023-08-30T06:09:44;12.45;99.00
68378;DHT22;55322;48.146;11.516;2023-08-30T06:12:09;12.48;98.69
68378;DHT22;55322;48.146;11.516;2023-08-30T06:14:35;12.48;98.45
68378;DHT22;55322;48.146;11.516;2023-08-30T06:17:00;12.49;98.15
68378;DHT22;55322;48.146;11.516;2023-08-30T06:19:25;12.50;98.17
68378;DHT22;55322;48.146;11.516;2023-08-30T06:21:51;12.50;98.40
68378;DHT22;55322;48.146;11.516;2023-08-30T06:24:16;12.56;98.41
68378;DHT22;55322;48.146;11.516;2023-08-30T06:26:41;12.60;98.16
68378;DHT22;55322;48.146;11.516;2023-08-30T06:29:06;12.59;97.67
68378;DHT22;55322;48.146;11.516;2023-08-30T06:31:32;12.63;97.92
68378;DHT22;55322;48.146;11.516;2023-08-30T06:33:57;12.64;97.98
68378;DHT22;55322;48.146;11.516;2023-08-30T06:36:22;12.66;97.93
68378;DHT22;55322;48.146;11.516;2023-08-30T06:38:48;12.66;97.87
68378;DHT22;55322;48.146;11.516;2023-08-30T06:41:14;12.72;98.03
68378;DHT22;55322;48.146;11.516;2023-08-30T06:43:39;12.73;97.71
68378;DHT22;55322;48.146;11.516;2023-08-30T06:46:04;12.73;97.55
68378;DHT22;55322;48.146;11.516;2023-08-30T06:48:30;12.73;97.54
68378;DHT22;55322;48.146;11.516;2023-08-30T06:50:58;12.73;97.43
68378;DHT22;55322;48.146;11.516;2023-08-30T06:53:25;12.72;97.32
68378;DHT22;55322;48.146;11.516;2023-08-30T06:56:00;12.76;97.74
68378;DHT22;55322;48.146;11.516;2023-08-30T06:58:25;12.75;97.75
68378;DHT22;55322;48.146;11.516;2023-08-30T07:00:51;12.72;97.26
68378;DHT22;55322;48.146;11.516;2023-08-30T07:03:16;12.75;97.79
68378;DHT22;55322;48.146;11.516;2023-08-30T07:05:41;12.80;97.68
68378;DHT22;55322;48.146;11.516;2023-08-30T07:08:08;12.83;97.60
68378;DHT22;55322;48.146;11.516;2023-08-30T07:10:34;12.83;98.07
68378;DHT22;55322;48.146;11.516;2023-08-30T07:12:59;12.84;98.03
68378;DHT22;55322;48.146;11.516;2023-08-30T07:15:25;12.83;97.98
68378;DHT22;55322;48.146;11.516;2023-08-30T07:17:50;12.86;97.95
68378;DHT22;55322;48.146;11.516;2023-08-30T07:20:16;12.84;97.51
68378;DHT22;55322;48.146;11.516;2023-08-30T07:22:41;12.87;97.70
68378;DHT22;55322;48.146;11.516;2023-08-30T07:25:07;12.89;98.11
68378;DHT22;55322;48.146;11.516;2023-08-30T07:27:33;12.94;98.02
68378;DHT22;55322;48.146;11.516;2023-08-30T07:29:59;12.90;97.77
68378;DHT22;55322;48.146;11.516;2023-08-30T07:32:24;12.93;98.24
68378;DHT22;55322;48.146;11.516;2023-08-30T07:34:49;12.99;98.36
68378;DHT22;55322;48.146;11.516;2023-08-30T07:37:21;13.00;98.50
68378;DHT22;55322;48.146;11.516;2023-08-30T07:39:46;13.07;98.33
68378;DHT22;55322;48.146;11.516;2023-08-30T07:42:13;13.14;97.91
68378;DHT22;55322;48.146;11.516;2023-08-30T07:44:39;13.18;97.67
68378;DHT22;55322;48.146;11.516;2023-08-30T07:47:05;13.17;97.33
68378;DHT22;55322;48.146;11.516;2023-08-30T07:49:30;13.21;97.40
68378;DHT22;55322;48.146;11.516;2023-08-30T07:51:55;13.21;96.86
68378;DHT22;55322;48.146;11.516;2023-08-30T07:54:21;13.30;97.03
68378;DHT22;55322;48.146;11.516;2023-08-30T07:56:46;13.40;96.98
68378;DHT22;55322;48.146;11.516;2023-08-30T07:59:12;13.38;97.21
68378;DHT22;55322;48.146;11.516;2023-08-30T08:01:38;13.40;97.03
68378;DHT22;55322;48.146;11.516;2023-08-30T08:04:03;13.35;96.61
68378;DHT22;55322;48.146;11.516;2023-08-30T08:06:28;13.34;96.91
68378;DHT22;55322;48.146;11.516;2023-08-30T08:08:54;13.31;96.95
68378;DHT22;55322;48.146;11.516;2023-08-30T08:11:19;13.31;97.61
68378;DHT22;55322;48.146;11.516;2023-08-30T08:13:44;13.41;97.80
68378;DHT22;55322;48.146;11.516;2023-08-30T08:16:10;13.53;97.53
68378;DHT22;55322;48.146;11.516;2023-08-30T08:18:35;13.59;97.09
68378;DHT22;55322;48.146;11.516;2023-08-30T08:21:00;13.67;97.39
68378;DHT22;55322;48.146;11.516;2023-08-30T08:23:26;13.62;95.89
68378;DHT22;55322;48.146;11.516;2023-08-30T08:25:57;13.67;96.16
68378;DHT22;55322;48.146;11.516;2023-08-30T08:28:23;13.72;96.56
68378;DHT22;55322;48.146;11.516;2023-08-30T08:30:48;13.86;96.28
68378;DHT22;55322;48.146;11.516;2023-08-30T08:33:16;14.12;95.57
68378;DHT22;55322;48.146;11.516;2023-08-30T08:35:42;14.37;94.20
68378;DHT22;55322;48.146;11.516;2023-08-30T08:38:07;14.71;93.23
68378;DHT22;55322;48.146;11.516;2023-08-30T08:40:37;14.97;92.70
68378;DHT22;55322;48.146;11.516;2023-08-30T08:43:04;15.10;91.38
68378;DHT22;55322;48.146;11.516;2023-08-30T08:45:32;15.10;90.02
68378;DHT22;55322;48.146;11.516;2023-08-30T08:47:59;14.88;90.03
68378;DHT22;55322;48.146;11.516;2023-08-30T08:50:25;14.74;91.36
68378;DHT22;55322;48.146;11.516;2023-08-30T08:52:51;14.66;91.04
68378;DHT22;55322;48.146;11.516;2023-08-30T08:55:18;14.87;92.23
68378;DHT22;55322;48.146;11.516;2023-08-30T08:57:44;15.07;89.98
68378;DHT22;55322;48.146;11.516;2023-08-30T09:00:10;15.34;90.58
68378;DHT22;55322;48.146;11.516;2023-08-30T09:02:35;15.52;89.85
68378;DHT22;55322;48.146;11.516;2023-08-30T09:05:01;15.76;88.16
68378;DHT22;55322;48.146;11.516;2023-08-30T09:07:27;16.05;88.30
68378;DHT22;55322;48.146;11.516;2023-08-30T09:09:53;16.73;84.51
68378;DHT22;55322;48.146;11.516;2023-08-30T09:12:19;17.42;81.64
68378;DHT22;55322;48.146;11.516;2023-08-30T09:14:53;17.40;77.98
68378;DHT22;55322;48.146;11.516;2023-08-30T09:17:19;17.53;79.28
68378;DHT22;55322;48.146;11.516;2023-08-30T09:19:44;17.14;81.78
68378;DHT22;55322;48.146;11.516;2023-08-30T09:22:10;16.73;81.22
68378;DHT22;55322;48.146;11.516;2023-08-30T09:24:39;16.83;81.94
68378;DHT22;55322;48.146;11.516;2023-08-30T09:27:05;16.81;82.92
68378;DHT22;55322;48.146;11.516;2023-08-30T09:29:31;17.96;80.37
68378;DHT22;55322;48.146;11.516;2023-08-30T09:31:57;18.72;73.48
68378;DHT22;55322;48.146;11.516;2023-08-30T09:34:25;20.11;74.47
68378;DHT22;55322;48.146;11.516;2023-08-30T09:36:51;20.41;66.37
68378;DHT22;55322;48.146;11.516;2023-08-30T09:39:17;19.49;69.69
68378;DHT22;55322;48.146;11.516;2023-08-30T09:41:49;18.85;73.53
68378;DHT22;55322;48.146;11.516;2023-08-30T09:44:17;18.38;74.65
68378;DHT22;55322;48.146;11.516;2023-08-30T09:46:53;18.01;76.48
68378;DHT22;55322;48.146;11.516;2023-08-30T09:49:23;18.06;78.31
68378;DHT22;55322;48.146;11.516;2023-08-30T09:51:50;18.29;74.53
68378;DHT22;55322;48.146;11.516;2023-08-30T09:54:24;18.48;72.40
68378;DHT22;55322;48.146;11.516;2023-08-30T09:56:50;19.70;74.80
68378;DHT22;55322;48.146;11.516;2023-08-30T09:59:21;21.06;68.00
68378;DHT22;55322;48.146;11.516;2023-08-30T10:01:47;21.00;66.33
68378;DHT22;55322;48.146;11.516;2023-08-30T10:04:20;20.20;65.76
68378;DHT22;55322;48.146;11.516;2023-08-30T10:06:46;19.42;67.07
68378;DHT22;55322;48.146;11.516;2023-08-30T10:09:11;18.96;70.12
68378;DHT22;55322;48.146;11.516;2023-08-30T10:11:38;18.45;65.66
68378;DHT22;55322;48.146;11.516;2023-08-30T10:14:04;18.26;70.42
68378;DHT22;55322;48.146;11.516;2023-08-30T10:16:42;18.20;71.51
68378;DHT22;55322;48.146;11.516;2023-08-30T10:19:16;18.27;71.87
68378;DHT22;55322;48.146;11.516;2023-08-30T10:21:44;18.18;70.65
68378;DHT22;55322;48.146;11.516;2023-08-30T10:24:12;18.01;73.61
68378;DHT22;55322;48.146;11.516;2023-08-30T10:26:40;17.83;72.78
68378;DHT22;55322;48.146;11.516;2023-08-30T10:29:07;17.65;75.57
68378;DHT22;55322;48.146;11.516;2023-08-30T10:31:33;17.49;73.47
68378;DHT22;55322;48.146;11.516;2023-08-30T10:33:58;17.46;77.59
68378;DHT22;55322;48.146;11.516;2023-08-30T10:36:24;17.43;77.35
68378;DHT22;55322;48.146;11.516;2023-08-30T10:38:51;17.52;75.34
68378;DHT22;55322;48.146;11.516;2023-08-30T10:41:24;17.72;75.95
68378;DHT22;55322;48.146;11.516;2023-08-30T10:43:52;17.83;73.40
68378;DHT22;55322;48.146;11.516;2023-08-30T10:46:31;18.06;72.07
68378;DHT22;55322;48.146;11.516;2023-08-30T10:49:08;18.17;72.94
68378;DHT22;55322;48.146;11.516;2023-08-30T10:51:37;18.13;72.83
68378;DHT22;55322;48.146;11.516;2023-08-30T10:54:13;18.26;70.19
68378;DHT22;55322;48.146;11.516;2023-08-30T10:56:57;18.44;70.75
68378;DHT22;55322;48.146;11.516;2023-08-30T10:59:25;18.38;69.34
68378;DHT22;55322;48.146;11.516;2023-08-30T11:01:51;18.94;69.98
68378;DHT22;55322;48.146;11.516;2023-08-30T11:04:21;19.29;62.07
68378;DHT22;55322;48.146;11.516;2023-08-30T11:06:49;19.70;67.00
68378;DHT22;55322;48.146;11.516;2023-08-30T11:09:23;20.16;63.89
68378;DHT22;55322;48.146;11.516;2023-08-30T11:11:49;20.31;61.29
68378;DHT22;55322;48.146;11.516;2023-08-30T11:14:16;20.52;63.26
68378;DHT22;55322;48.146;11.516;2023-08-30T11:16:42;20.67;60.28
68378;DHT22;55322;48.146;11.516;2023-08-30T11:19:09;20.68;56.80
68378;DHT22;55322;48.146;11.516;2023-08-30T11:21:39;20.85;61.26
68378;DHT22;55322;48.146;11.516;2023-08-30T11:24:06;20.82;61.09
68378;DHT22;55322;48.146;11.516;2023-08-30T11:26:32;21.08;60.50
68378;DHT22;55322;48.146;11.516;2023-08-30T11:29:03;21.42;60.87
68378;DHT22;55322;48.146;11.516;2023-08-30T11:31:29;21.76;54.94
68378;DHT22;55322;48.146;11.516;2023-08-30T11:33:58;21.15;61.59
68378;DHT22;55322;48.146;11.516;2023-08-30T11:36:26;20.13;63.17
68378;DHT22;55322;48.146;11.516;2023-08-30T11:38:53;19.48;64.50
68378;DHT22;55322;48.146;11.516;2023-08-30T11:41:22;19.42;66.17
68378;DHT22;55322;48.146;11.516;2023-08-30T11:43:48;19.69;67.41
68378;DHT22;55322;48.146;11.516;2023-08-30T11:46:13;19.84;63.50
68378;DHT22;55322;48.146;11.516;2023-08-30T11:48:42;19.39;66.54
68378;DHT22;55322;48.146;11.516;2023-08-30T11:51:08;18.87;70.72
68378;DHT22;55322;48.146;11.516;2023-08-30T11:53:34;18.34;69.37
68378;DHT22;55322;48.146;11.516;2023-08-30T11:56:00;18.33;69.62
68378;DHT22;55322;48.146;11.516;2023-08-30T11:58:25;18.50;69.11
68378;DHT22;55322;48.146;11.516;2023-08-30T12:00:52;18.75;69.06
68378;DHT22;55322;48.146;11.516;2023-08-30T12:03:19;19.26;67.77
68378;DHT22;55322;48.146;11.516;2023-08-30T12:05:46;19.39;67.23
68378;DHT22;55322;48.146;11.516;2023-08-30T12:08:38;19.35;68.55
68378;DHT22;55322;48.146;11.516;2023-08-30T12:11:03;19.08;69.87
68378;DHT22;55322;48.146;11.516;2023-08-30T12:13:30;18.65;69.64
68378;DHT22;55322;48.146;11.516;2023-08-30T12:15:57;18.45;71.00
68378;DHT22;55322;48.146;11.516;2023-08-30T12:18:27;18.36;72.74
68378;DHT22;55322;48.146;11.516;2023-08-30T12:20:55;18.43;71.67
68378;DHT22;55322;48.146;11.516;2023-08-30T12:23:24;18.27;72.48
68378;DHT22;55322;48.146;11.516;2023-08-30T12:26:16;18.27;74.96
68378;DHT22;55322;48.146;11.516;2023-08-30T12:28:42;18.34;74.00
68378;DHT22;55322;48.146;11.516;2023-08-30T12:31:09;18.33;69.71
68378;DHT22;55322;48.146;11.516;2023-08-30T12:33:36;18.94;67.22
68378;DHT22;55322;48.146;11.516;2023-08-30T12:36:02;19.58;65.96
68378;DHT22;55322;48.146;11.516;2023-08-30T12:38:29;20.18;62.57
68378;DHT22;55322;48.146;11.516;2023-08-30T12:40:56;20.63;62.92
68378;DHT22;55322;48.146;11.516;2023-08-30T12:43:23;20.71;57.89
68378;DHT22;55322;48.146;11.516;2023-08-30T12:45:49;20.84;58.78
68378;DHT22;55322;48.146;11.516;2023-08-30T12:48:16;21.32;60.03
68378;DHT22;55322;48.146;11.516;2023-08-30T12:50:43;21.20;54.28
68378;DHT22;55322;48.146;11.516;2023-08-30T12:53:09;21.46;57.11
68378;DHT22;55322;48.146;11.516;2023-08-30T12:55:35;21.64;55.45
68378;DHT22;55322;48.146;11.516;2023-08-30T12:58:01;21.49;55.20
68378;DHT22;55322;48.146;11.516;2023-08-30T13:00:27;21.29;56.86
68378;DHT22;55322;48.146;11.516;2023-08-30T13:02:53;20.74;60.01
68378;DHT22;55322;48.146;11.516;2023-08-30T13:05:18;20.38;61.45
68378;DHT22;55322;48.146;11.516;2023-08-30T13:07:44;20.06;61.75
68378;DHT22;55322;48.146;11.516;2023-08-30T13:10:10;19.71;62.05
68378;DHT22;55322;48.146;11.516;2023-08-30T13:12:36;19.60;63.04
68378;DHT22;55322;48.146;11.516;2023-08-30T13:15:05;19.65;57.72
68378;DHT22;55322;48.146;11.516;2023-08-30T13:17:30;19.53;61.27
68378;DHT22;55322;48.146;11.516;2023-08-30T13:19:56;19.66;58.17
68378;DHT22;55322;48.146;11.516;2023-08-30T13:22:23;19.02;65.41
68378;DHT22;55322;48.146;11.516;2023-08-30T13:24:48;18.44;68.42
68378;DHT22;55322;48.146;11.516;2023-08-30T13:27:14;18.03;68.80
68378;DHT22;55322;48.146;11.516;2023-08-30T13:29:39;17.80;69.86
68378;DHT22;55322;48.146;11.516;2023-08-30T13:32:05;17.86;72.63
68378;DHT22;55322;48.146;11.516;2023-08-30T13:34:30;17.72;71.17
68378;DHT22;55322;48.146;11.516;2023-08-30T13:36:55;17.55;71.04
68378;DHT22;55322;48.146;11.516;2023-08-30T13:39:20;17.19;70.62
68378;DHT22;55322;48.146;11.516;2023-08-30T13:41:47;17.10;73.51
68378;DHT22;55322;48.146;11.516;2023-08-30T13:44:16;16.95;71.99
68378;DHT22;55322;48.146;11.516;2023-08-30T13:46:42;16.84;74.07
68378;DHT22;55322;48.146;11.516;2023-08-30T13:49:08;16.75;74.08
68378;DHT22;55322;48.146;11.516;2023-08-30T13:51:33;16.64;76.10
68378;DHT22;55322;48.146;11.516;2023-08-30T13:53:59;16.53;76.06
68378;DHT22;55322;48.146;11.516;2023-08-30T13:56:24;16.50;76.34
68378;DHT22;55322;48.146;11.516;2023-08-30T13:58:50;16.43;77.14
68378;DHT22;55322;48.146;11.516;2023-08-30T14:01:16;16.37;78.05
68378;DHT22;55322;48.146;11.516;2023-08-30T14:03:42;16.31;78.75
68378;DHT22;55322;48.146;11.516;2023-08-30T14:06:07;16.26;78.08
68378;DHT22;55322;48.146;11.516;2023-08-30T14:08:33;16.31;78.06
68378;DHT22;55322;48.146;11.516;2023-08-30T14:10:58;16.30;78.86
68378;DHT22;55322;48.146;11.516;2023-08-30T14:13:24;16.37;79.16
68378;DHT22;55322;48.146;11.516;2023-08-30T14:15:49;16.39;78.38
68378;DHT22;55322;48.146;11.516;2023-08-30T14:18:15;16.46;77.73
68378;DHT22;55322;48.146;11.516;2023-08-30T14:20:42;16.59;77.89
68378;DHT22;55322;48.146;11.516;2023-08-30T14:23:07;16.75;75.76
68378;DHT22;55322;48.146;11.516;2023-08-30T14:25:32;16.84;77.61
68378;DHT22;55322;48.146;11.516;2023-08-30T14:27:58;16.85;76.89
68378;DHT22;55322;48.146;11.516;2023-08-30T14:30:24;16.95;78.98
68378;DHT22;55322;48.146;11.516;2023-08-30T14:32:51;17.03;75.96
68378;DHT22;55322;48.146;11.516;2023-08-30T14:35:16;17.34;72.82
68378;DHT22;55322;48.146;11.516;2023-08-30T14:37:41;17.48;71.21
68378;DHT22;55322;48.146;11.516;2023-08-30T14:40:07;17.56;70.72
68378;DHT22;55322;48.146;11.516;2023-08-30T14:42:32;17.70;71.81
68378;DHT22;55322;48.146;11.516;2023-08-30T14:44:58;18.01;67.35
68378;DHT22;55322;48.146;11.516;2023-08-30T14:47:24;18.30;68.13
68378;DHT22;55322;48.146;11.516;2023-08-30T14:49:49;18.27;68.96
68378;DHT22;55322;48.146;11.516;2023-08-30T14:52:15;18.01;68.55
68378;DHT22;55322;48.146;11.516;2023-08-30T14:54:41;18.03;68.65
68378;DHT22;55322;48.146;11.516;2023-08-30T14:57:07;18.10;69.90
68378;DHT22;55322;48.146;11.516;2023-08-30T14:59:32;17.97;70.50
68378;DHT22;55322;48.146;11.516;2023-08-30T15:01:57;17.83;73.27
68378;DHT22;55322;48.146;11.516;2023-08-30T15:04:23;17.82;73.62
68378;DHT22;55322;48.146;11.516;2023-08-30T15:06:48;17.87;69.72
68378;DHT22;55322;48.146;11.516;2023-08-30T15:09:13;17.93;70.27
68378;DHT22;55322;48.146;11.516;2023-08-30T15:11:41;18.03;70.75
68378;DHT22;55322;48.146;11.516;2023-08-30T15:14:07;18.10;66.32
68378;DHT22;55322;48.146;11.516;2023-08-30T15:16:32;18.30;68.10